createdAt,value
2022-10-17T00:01:07.356Z,12.50
2022-10-17T00:03:37.059Z,12.50
2022-10-17T00:06:09.491Z,13.10
2022-10-17T00:08:37.920Z,12.50
2022-10-17T00:11:08.399Z,12.60
2022-10-17T00:13:36.835Z,12.20
2022-10-17T00:16:05.624Z,12.60
2022-10-17T00:18:33.838Z,12.10
2022-10-17T00:21:02.150Z,12.80
2022-10-17T00:23:31.735Z,12.70
2022-10-17T00:26:00.834Z,12.50
2022-10-17T00:30:58.150Z,13.20
2022-10-17T00:36:04.566Z,12.80
2022-10-17T00:38:34.430Z,12.30
2022-10-17T00:43:31.221Z,12.80
2022-10-17T00:45:59.406Z,12.40
2022-10-17T00:50:56.550Z,16.00
2022-10-17T00:55:55.485Z,12.10
2022-10-17T01:00:52.107Z,12.30
2022-10-17T01:08:17.671Z,11.90
2022-10-17T01:10:56.397Z,12.50
2022-10-17T01:13:31.982Z,12.40
2022-10-17T01:16:10.251Z,11.80
2022-10-17T01:18:52.637Z,12.40
2022-10-17T01:21:43.250Z,12.40
2022-10-17T01:24:49.055Z,12.00
2022-10-17T01:27:50.476Z,12.00
2022-10-17T01:30:51.245Z,12.00
2022-10-17T01:33:27.639Z,11.90
2022-10-17T01:36:03.362Z,12.40
2022-10-17T01:38:39.339Z,12.00
2022-10-17T01:41:14.779Z,11.80
2022-10-17T01:43:48.241Z,12.00
2022-10-17T01:46:23.081Z,12.00
2022-10-17T01:48:55.040Z,12.00
2022-10-17T01:51:26.316Z,12.00
2022-10-17T01:53:59.554Z,11.80
2022-10-17T01:56:31.197Z,11.60
2022-10-17T01:59:04.111Z,11.10
2022-10-17T02:01:33.066Z,10.90
2022-10-17T02:04:03.890Z,11.80
2022-10-17T02:06:36.432Z,11.70
2022-10-17T02:09:19.186Z,12.00
2022-10-17T02:11:56.501Z,11.50
2022-10-17T02:14:34.706Z,11.30
2022-10-17T02:17:12.460Z,11.10
2022-10-17T02:19:51.545Z,11.70
2022-10-17T02:22:28.828Z,11.20
2022-10-17T02:25:04.615Z,11.80
2022-10-17T02:27:39.831Z,11.90
2022-10-17T02:30:13.069Z,11.80
2022-10-17T02:32:50.169Z,11.90
2022-10-17T02:35:22.612Z,11.80
2022-10-17T02:37:52.997Z,11.90
2022-10-17T02:40:23.719Z,11.80
2022-10-17T02:42:54.369Z,12.00
2022-10-17T02:45:25.332Z,11.90
2022-10-17T02:48:00.208Z,12.00
2022-10-17T02:50:37.899Z,12.10
2022-10-17T02:53:10.571Z,12.50
2022-10-17T02:55:45.342Z,12.20
2022-10-17T02:58:19.860Z,11.90
2022-10-17T03:03:21.397Z,12.00
2022-10-17T03:05:52.156Z,12.00
2022-10-17T03:10:48.783Z,13.30
2022-10-17T03:13:17.317Z,11.50
2022-10-17T03:15:45.343Z,11.80
2022-10-17T03:18:13.761Z,11.80
2022-10-17T03:23:11.838Z,11.80
2022-10-17T03:30:40.106Z,12.20
2022-10-17T03:33:08.255Z,12.50
2022-10-17T03:35:39.957Z,12.00
2022-10-17T03:38:08.069Z,12.30
2022-10-17T03:40:37.591Z,12.00
2022-10-17T03:57:57.935Z,11.80
2022-10-17T04:12:48.004Z,11.20
2022-10-17T04:15:17.585Z,11.80
2022-10-17T04:32:40.268Z,11.60
2022-10-17T04:35:10.160Z,11.80
2022-10-17T04:37:50.284Z,11.60
2022-10-17T04:47:45.139Z,9.30
2022-10-17T04:57:38.400Z,12.40
2022-10-17T05:05:12.351Z,12.30
2022-10-17T05:07:41.757Z,12.50
2022-10-17T05:10:10.517Z,13.00
2022-10-17T05:15:08.295Z,12.90
2022-10-17T05:22:38.233Z,13.00
2022-10-17T05:25:09.837Z,13.50
2022-10-17T05:30:07.508Z,13.60
2022-10-17T05:32:36.653Z,13.40
2022-10-17T05:35:06.129Z,13.80
2022-10-17T05:37:35.829Z,13.80
2022-10-17T05:42:32.905Z,14.30
2022-10-17T05:47:29.809Z,14.20
2022-10-17T05:54:56.960Z,14.70
2022-10-17T05:57:26.801Z,15.50
2022-10-17T05:59:54.855Z,15.40
2022-10-17T06:12:17.954Z,15.10
2022-10-17T06:14:46.245Z,16.50
2022-10-17T06:17:16.259Z,16.20
2022-10-17T06:19:45.290Z,16.10
2022-10-17T06:22:13.521Z,16.60
2022-10-17T06:27:13.152Z,16.50
2022-10-17T06:29:42.572Z,16.60
2022-10-17T06:39:41.429Z,16.40
2022-10-17T06:42:09.596Z,16.40
2022-10-17T06:44:37.660Z,16.30
2022-10-17T06:47:07.058Z,16.20
2022-10-17T06:52:04.164Z,16.40
2022-10-17T06:54:33.496Z,16.80
2022-10-17T07:01:58.342Z,16.90
2022-10-17T07:04:28.051Z,17.20
2022-10-17T07:06:56.135Z,16.60
2022-10-17T07:14:21.671Z,17.20
2022-10-17T07:21:49.089Z,17.80
2022-10-17T07:24:17.352Z,17.60
2022-10-17T07:26:45.782Z,17.60
2022-10-17T07:34:10.436Z,18.00
2022-10-17T07:36:38.502Z,17.80
2022-10-17T07:39:07.945Z,17.50
2022-10-17T07:41:36.028Z,18.30
2022-10-17T07:44:04.138Z,18.00
2022-10-17T07:46:32.208Z,19.20
2022-10-17T07:51:28.590Z,19.30
2022-10-17T07:53:56.772Z,18.70
2022-10-17T07:56:26.304Z,18.20
2022-10-17T07:58:54.740Z,18.60
2022-10-17T08:01:22.880Z,19.10
2022-10-17T08:03:52.027Z,18.80
2022-10-17T08:08:48.380Z,19.50
2022-10-17T08:11:16.686Z,19.10
2022-10-17T08:13:46.098Z,19.00
2022-10-17T08:16:14.637Z,19.20
2022-10-17T08:18:44.449Z,19.20
2022-10-17T08:21:14.381Z,19.20
2022-10-17T08:26:13.569Z,19.40
2022-10-17T08:28:42.321Z,19.20
2022-10-17T08:31:13.855Z,19.60
2022-10-17T08:33:42.438Z,19.40
2022-10-17T08:36:11.011Z,19.80
2022-10-17T08:41:21.141Z,19.80
2022-10-17T08:44:04.902Z,19.80
2022-10-17T08:46:38.769Z,20.00
2022-10-17T08:49:14.080Z,20.60
2022-10-17T08:51:50.600Z,19.80
2022-10-17T08:54:21.677Z,20.80
2022-10-17T08:56:51.405Z,19.80
2022-10-17T08:59:22.696Z,19.60
2022-10-17T09:02:00.344Z,20.20
2022-10-17T09:04:56.373Z,20.90
2022-10-17T09:07:30.910Z,20.70
2022-10-17T09:10:06.148Z,21.90
2022-10-17T09:12:42.841Z,22.10
2022-10-17T09:15:35.504Z,22.60
2022-10-17T09:18:13.409Z,23.30
2022-10-17T09:20:46.971Z,23.60
2022-10-17T09:23:18.933Z,24.30
2022-10-17T09:25:50.999Z,24.80
2022-10-17T09:28:24.711Z,24.80
2022-10-17T09:30:58.121Z,25.00
2022-10-17T09:33:42.381Z,25.60
2022-10-17T09:36:21.404Z,24.50
2022-10-17T09:38:51.749Z,25.10
2022-10-17T09:41:44.222Z,25.60
2022-10-17T09:44:18.507Z,25.00
2022-10-17T09:47:03.021Z,24.70
2022-10-17T09:49:34.680Z,24.40
2022-10-17T09:52:05.200Z,23.80
2022-10-17T09:54:42.424Z,22.40
2022-10-17T09:57:12.155Z,22.70
2022-10-17T09:59:43.096Z,23.20
2022-10-17T10:02:19.141Z,24.10
2022-10-17T10:05:06.756Z,24.20
2022-10-17T10:07:37.436Z,24.10
2022-10-17T10:10:07.884Z,23.60
2022-10-17T10:12:37.947Z,22.50
2022-10-17T10:15:33.450Z,22.40
2022-10-17T10:18:01.935Z,22.30
2022-10-17T10:20:34.813Z,22.50
2022-10-17T10:23:14.314Z,22.70
2022-10-17T10:25:54.591Z,23.40
2022-10-17T10:28:27.680Z,24.10
2022-10-17T10:30:57.381Z,23.10
2022-10-17T10:33:29.392Z,23.10
2022-10-17T10:36:01.901Z,22.50
2022-10-17T10:38:31.314Z,22.90
2022-10-17T10:41:05.009Z,22.40
2022-10-17T10:43:38.464Z,22.60
2022-10-17T10:46:17.292Z,22.40
2022-10-17T10:48:52.956Z,22.20
2022-10-17T10:51:28.222Z,21.60
2022-10-17T10:54:03.501Z,22.20
2022-10-17T10:56:39.429Z,22.30
2022-10-17T10:59:14.939Z,21.40
2022-10-17T11:01:49.272Z,21.90
2022-10-17T11:04:28.421Z,22.40
2022-10-17T11:07:08.554Z,22.30
2022-10-17T11:09:46.946Z,22.10
2022-10-17T11:12:21.875Z,22.20
2022-10-17T11:14:57.215Z,22.20
2022-10-17T11:17:33.785Z,22.20
2022-10-17T11:20:12.401Z,22.30
2022-10-17T11:22:45.448Z,22.60
2022-10-17T11:25:29.209Z,22.50
2022-10-17T11:27:59.806Z,21.20
2022-10-17T11:30:41.388Z,22.20
2022-10-17T11:33:13.333Z,22.70
2022-10-17T11:35:45.656Z,22.10
2022-10-17T11:38:19.579Z,22.50
2022-10-17T11:40:51.428Z,21.50
2022-10-17T11:43:22.610Z,22.40
2022-10-17T11:45:56.599Z,21.30
2022-10-17T11:48:29.772Z,22.10
2022-10-17T11:54:03.529Z,20.90
2022-10-17T11:56:42.703Z,21.60
2022-10-17T11:59:49.640Z,21.60
2022-10-17T12:02:26.967Z,22.50
2022-10-17T12:05:01.815Z,21.10
2022-10-17T12:07:39.498Z,20.80
2022-10-17T12:10:31.907Z,21.10
2022-10-17T12:13:41.185Z,20.80
2022-10-17T12:16:43.817Z,20.40
2022-10-17T12:19:43.216Z,21.80
2022-10-17T12:22:21.789Z,21.80
2022-10-17T12:24:58.602Z,21.00
2022-10-17T12:27:47.297Z,21.00
2022-10-17T12:30:23.867Z,21.00
2022-10-17T12:33:07.989Z,21.80
2022-10-17T12:35:38.044Z,22.20
2022-10-17T12:38:29.948Z,21.30
2022-10-17T12:41:03.360Z,21.10
2022-10-17T12:43:52.734Z,21.70
2022-10-17T12:46:49.768Z,22.40
2022-10-17T12:49:46.500Z,20.90
2022-10-17T12:52:27.295Z,21.10
2022-10-17T12:55:17.279Z,20.90
2022-10-17T12:58:00.118Z,21.60
2022-10-17T13:00:54.626Z,21.70
2022-10-17T13:03:34.580Z,20.80
2022-10-17T13:06:05.990Z,22.10
2022-10-17T13:08:37.299Z,21.00
2022-10-17T13:11:06.692Z,21.10
2022-10-17T13:13:42.393Z,21.20
2022-10-17T13:16:29.558Z,21.70
2022-10-17T13:18:58.170Z,21.90
2022-10-17T13:21:26.908Z,22.40
2022-10-17T13:23:55.289Z,22.00
2022-10-17T13:26:25.130Z,22.30
2022-10-17T13:29:04.105Z,22.50
2022-10-17T13:31:35.704Z,21.20
2022-10-17T13:34:06.095Z,21.30
2022-10-17T13:36:37.012Z,21.00
2022-10-17T13:39:12.369Z,21.80
2022-10-17T13:41:42.703Z,21.90
2022-10-17T13:44:17.170Z,22.40
2022-10-17T13:46:47.455Z,22.10
2022-10-17T13:49:25.938Z,22.10
2022-10-17T13:51:57.813Z,22.60
2022-10-17T13:54:38.318Z,22.70
2022-10-17T13:57:07.595Z,22.60
2022-10-17T13:59:40.653Z,22.20
2022-10-17T14:02:15.915Z,21.20
2022-10-17T14:05:15.086Z,21.00
2022-10-17T14:08:05.665Z,21.20
2022-10-17T14:10:31.053Z,21.10
2022-10-17T14:12:59.995Z,21.50
2022-10-17T14:15:30.975Z,21.20
2022-10-17T14:18:06.750Z,21.00
2022-10-17T14:23:35.120Z,21.20
2022-10-17T14:26:15.458Z,24.40
2022-10-17T14:28:46.238Z,21.10
2022-10-17T14:31:22.057Z,21.00
2022-10-17T14:33:52.504Z,21.50
2022-10-17T14:36:21.902Z,21.30
2022-10-17T14:38:52.944Z,21.00
2022-10-17T14:44:21.911Z,21.70
2022-10-17T14:46:53.941Z,21.20
2022-10-17T14:49:32.539Z,21.50
2022-10-17T14:52:28.751Z,25.40
2022-10-17T14:54:58.873Z,21.00
2022-10-17T14:57:42.832Z,21.40
2022-10-17T15:00:16.117Z,21.70
2022-10-17T15:02:45.059Z,21.30
2022-10-17T15:05:15.449Z,21.30
2022-10-17T15:07:44.341Z,20.50
2022-10-17T15:10:26.076Z,21.10
2022-10-17T15:12:59.145Z,20.70
2022-10-17T15:15:33.500Z,20.60
2022-10-17T15:18:02.099Z,20.90
2022-10-17T15:20:32.273Z,20.50
2022-10-17T15:23:02.068Z,20.70
2022-10-17T15:25:31.745Z,20.40
2022-10-17T15:28:00.183Z,20.50
2022-10-17T15:30:29.973Z,20.20
2022-10-17T15:35:27.309Z,20.30
2022-10-17T15:37:56.964Z,20.50
2022-10-17T15:40:28.900Z,20.30
2022-10-17T15:42:57.600Z,20.60
2022-10-17T15:47:56.524Z,20.10
2022-10-17T15:50:24.628Z,19.90
2022-10-17T15:55:22.572Z,19.80
2022-10-17T16:00:25.553Z,19.80
2022-10-17T16:05:25.567Z,19.90
2022-10-17T16:07:54.737Z,20.40
2022-10-17T16:10:25.538Z,19.20
2022-10-17T16:12:54.269Z,19.90
2022-10-17T16:15:25.392Z,19.80
2022-10-17T16:17:54.989Z,18.70
2022-10-17T16:20:23.814Z,19.20
2022-10-17T16:23:00.971Z,19.00
2022-10-17T16:25:32.280Z,18.50
2022-10-17T16:28:01.800Z,18.60
2022-10-17T16:30:31.749Z,18.60
2022-10-17T16:33:00.090Z,17.80
2022-10-17T16:35:36.781Z,18.50
2022-10-17T16:38:06.241Z,17.70
2022-10-17T16:40:36.114Z,18.50
2022-10-17T16:43:04.159Z,18.20
2022-10-17T16:55:27.590Z,17.60
2022-10-17T16:57:57.114Z,17.90
2022-10-17T17:00:25.144Z,17.80
2022-10-17T17:02:53.324Z,18.20
2022-10-17T17:07:49.841Z,17.80
2022-10-17T17:10:17.989Z,17.50
2022-10-17T17:12:46.071Z,17.70
2022-10-17T17:15:15.692Z,17.40
2022-10-17T17:20:20.461Z,17.60
2022-10-17T17:25:18.948Z,17.60
2022-10-17T17:27:48.113Z,17.50
2022-10-17T17:30:17.691Z,16.90
2022-10-17T17:37:42.550Z,17.20
2022-10-17T17:40:11.671Z,17.40
2022-10-17T17:45:09.072Z,16.80
2022-10-17T17:47:38.461Z,17.00
2022-10-17T17:50:07.328Z,17.20
2022-10-17T17:57:31.994Z,17.30
2022-10-17T18:04:59.128Z,17.00
2022-10-17T18:14:53.522Z,17.20
2022-10-17T18:19:50.050Z,16.90
2022-10-17T18:22:19.597Z,17.10
2022-10-17T18:27:16.404Z,17.00
2022-10-17T18:34:42.528Z,17.10
2022-10-17T18:37:12.017Z,17.00
2022-10-17T18:39:41.491Z,17.30
2022-10-17T18:42:11.310Z,17.40
2022-10-17T18:44:39.401Z,17.20
2022-10-17T18:54:34.790Z,16.80
2022-10-17T18:57:04.872Z,16.70
2022-10-17T19:04:30.362Z,17.20
2022-10-17T19:14:28.644Z,17.00
2022-10-17T19:16:57.180Z,16.00
2022-10-17T19:19:26.794Z,16.70
2022-10-17T19:21:55.322Z,16.70
2022-10-17T19:24:25.077Z,17.10
2022-10-17T19:26:55.562Z,16.80
2022-10-17T19:29:26.660Z,16.60
2022-10-17T19:36:52.812Z,16.40
2022-10-17T19:39:25.090Z,16.30
2022-10-17T19:41:53.313Z,16.60
2022-10-17T19:46:52.134Z,16.50
2022-10-17T19:54:18.622Z,16.30
2022-10-17T19:59:16.821Z,16.70
2022-10-17T20:01:45.504Z,16.00
2022-10-17T20:04:15.118Z,16.60
2022-10-17T20:06:43.210Z,16.30
2022-10-17T20:09:16.664Z,16.60
2022-10-17T20:11:46.192Z,16.70
2022-10-17T20:16:44.762Z,15.90
2022-10-17T20:19:15.043Z,15.80
2022-10-17T20:21:44.633Z,16.40
2022-10-17T20:24:15.361Z,16.90
2022-10-17T20:26:44.252Z,17.10
2022-10-17T20:29:15.287Z,16.20
2022-10-17T20:31:44.836Z,16.30
2022-10-17T20:34:16.879Z,16.30
2022-10-17T20:36:45.194Z,15.80
2022-10-17T20:39:15.061Z,15.70
2022-10-17T20:41:43.895Z,16.20
2022-10-17T20:44:12.475Z,16.10
2022-10-17T20:49:30.004Z,15.80
2022-10-17T20:54:28.331Z,16.90
2022-10-17T20:56:59.770Z,16.40
2022-10-17T20:59:30.765Z,16.10
2022-10-17T21:04:46.729Z,15.70
2022-10-17T21:07:15.776Z,16.10
2022-10-17T21:09:43.882Z,16.30
2022-10-17T21:14:54.213Z,16.50
2022-10-17T21:17:22.287Z,16.00
2022-10-17T21:19:51.852Z,16.20
2022-10-17T21:22:20.067Z,16.90
2022-10-17T21:27:18.917Z,15.70
2022-10-17T21:35:05.771Z,15.90
2022-10-17T21:40:02.313Z,16.20
2022-10-17T21:49:57.693Z,16.40
2022-10-17T21:52:27.124Z,15.80
2022-10-17T21:57:23.486Z,15.80
2022-10-17T22:09:46.396Z,15.80
2022-10-17T22:17:11.304Z,15.70
2022-10-17T22:19:39.352Z,15.40
2022-10-17T22:22:07.535Z,16.10
2022-10-17T22:27:09.765Z,15.60
2022-10-17T22:32:07.656Z,15.90
2022-10-17T22:39:32.376Z,15.90
2022-10-17T22:44:30.188Z,15.90
2022-10-17T22:46:58.198Z,16.10
2022-10-17T22:51:54.725Z,16.30
2022-10-17T23:01:49.967Z,15.60
2022-10-17T23:06:46.548Z,16.10
2022-10-17T23:19:09.560Z,15.70
2022-10-17T23:24:06.622Z,15.70
2022-10-17T23:26:34.633Z,16.00
2022-10-17T23:29:02.732Z,15.20
2022-10-17T23:34:00.038Z,15.60
2022-10-17T23:36:29.471Z,15.60
2022-10-17T23:38:58.614Z,15.90
2022-10-17T23:46:23.593Z,16.00
2022-10-17T23:48:52.187Z,16.10
2022-10-17T23:51:20.303Z,15.40
2022-10-17T23:53:49.737Z,15.80
2022-10-17T23:56:17.800Z,15.70
